Atwater, California
Current Conditions -  °F | °C
As of 7:45 PM on Saturday 24 Jan 2015 (Local Time) from KMER Reporting Station
Haze Haze  
Wind Chill:   Ceiling: 300
Heat Index:   Visibility: 2mi
Dew Point:   Wind: 6mph
Humidity: 100%   Direction: 130°SE
Pressure: 30.18"   Gusts: NA
Location:  37.35°N, 120.6°W
Report Text: KMER 250345Z 13005KT 2SM BR OVC003 07/07 A3018
Loading
Personal Weather Stations






























Interactive Weather Map New forecast layout! Learn more

10-Day Weather Forecast

Advertisements
Track Severe Weather on mobile